createdAt,value
2022-08-26T00:00:30.891Z,100945.13
2022-08-26T00:02:02.625Z,100955.19
2022-08-26T00:03:35.535Z,100953.88
2022-08-26T00:05:07.373Z,100960.28
2022-08-26T00:06:42.737Z,100954.59
2022-08-26T00:08:18.713Z,100957.28
2022-08-26T00:09:54.381Z,100961.53
2022-08-26T00:11:27.270Z,100961.00
2022-08-26T00:12:58.826Z,100967.09
2022-08-26T00:14:31.859Z,100963.25
2022-08-26T00:16:04.258Z,100967.38
2022-08-26T00:17:36.371Z,100968.22
2022-08-26T00:19:11.756Z,100979.09
2022-08-26T00:20:44.569Z,100976.75
2022-08-26T00:22:21.518Z,100977.16
2022-08-26T00:23:53.600Z,100985.06
2022-08-26T00:25:25.351Z,100979.13
2022-08-26T00:26:56.911Z,100979.09
2022-08-26T00:28:28.400Z,100980.53
2022-08-26T00:30:01.662Z,100980.66
2022-08-26T00:31:33.300Z,100991.16
2022-08-26T00:33:06.200Z,100992.41
2022-08-26T00:34:38.961Z,100993.66
2022-08-26T00:36:19.895Z,100993.66
2022-08-26T00:37:51.731Z,100993.28
2022-08-26T00:39:23.232Z,100982.97
2022-08-26T00:40:55.988Z,100995.56
2022-08-26T00:42:27.845Z,100993.69
2022-08-26T00:43:59.410Z,100989.16
2022-08-26T00:45:38.025Z,100995.09
2022-08-26T00:47:15.242Z,101000.16
2022-08-26T00:48:51.368Z,101001.03
2022-08-26T00:50:25.114Z,101004.97
2022-08-26T00:52:00.851Z,100999.19
2022-08-26T00:53:36.627Z,100996.31
2022-08-26T00:55:11.729Z,100992.19
2022-08-26T00:56:55.350Z,100999.53
2022-08-26T00:58:28.078Z,101004.00
2022-08-26T01:00:01.110Z,101001.97
2022-08-26T01:01:34.066Z,101004.38
2022-08-26T01:03:05.808Z,101011.44
2022-08-26T01:04:45.100Z,101000.34
2022-08-26T01:06:16.636Z,101000.56
2022-08-26T01:07:48.944Z,100999.59
2022-08-26T01:09:23.396Z,101003.50
2022-08-26T01:10:55.779Z,101010.78
2022-08-26T01:12:28.925Z,101002.75
2022-08-26T01:14:02.735Z,101005.13
2022-08-26T01:15:35.409Z,101011.63
2022-08-26T01:17:08.589Z,101008.59
2022-08-26T01:18:43.237Z,101019.31
2022-08-26T01:20:19.229Z,101009.66
2022-08-26T01:21:55.474Z,101012.66
2022-08-26T01:23:32.448Z,101020.84
2022-08-26T01:25:04.789Z,101015.19
2022-08-26T01:26:41.414Z,101010.69
2022-08-26T01:28:14.447Z,101005.69
2022-08-26T01:29:48.729Z,101012.38
2022-08-26T01:31:23.758Z,101020.69
2022-08-26T01:32:56.476Z,101019.50
2022-08-26T01:34:29.684Z,101020.09
2022-08-26T01:36:01.412Z,101018.25
2022-08-26T01:37:33.918Z,101013.16
2022-08-26T01:39:07.580Z,101023.91
2022-08-26T01:40:42.993Z,101027.25
2022-08-26T01:42:15.632Z,101019.59
2022-08-26T01:43:50.549Z,101026.56
2022-08-26T01:45:25.362Z,101031.38
2022-08-26T01:46:57.456Z,101022.13
2022-08-26T01:48:32.200Z,101029.94
2022-08-26T01:50:05.913Z,101031.03
2022-08-26T01:51:38.520Z,101036.25
2022-08-26T01:53:12.660Z,101038.22
2022-08-26T01:54:46.265Z,101030.06
2022-08-26T01:56:18.513Z,101041.75
2022-08-26T01:57:56.248Z,101049.94
2022-08-26T01:59:28.129Z,101045.47
2022-08-26T02:00:59.825Z,101039.63
2022-08-26T02:02:31.432Z,101039.41
2022-08-26T02:04:06.008Z,101045.16
2022-08-26T02:05:37.886Z,101042.09
2022-08-26T02:07:11.635Z,101051.00
2022-08-26T02:08:44.798Z,101041.50
2022-08-26T02:10:17.693Z,101047.72
2022-08-26T02:11:52.745Z,101049.28
2022-08-26T02:13:26.640Z,101053.53
2022-08-26T02:15:00.867Z,101056.84
2022-08-26T02:16:34.443Z,101052.34
2022-08-26T02:18:14.143Z,101045.66
2022-08-26T02:19:47.349Z,101054.44
2022-08-26T02:21:19.100Z,101060.91
2022-08-26T02:22:50.727Z,101062.97
2022-08-26T02:24:23.598Z,101064.69
2022-08-26T02:26:07.127Z,101052.59
2022-08-26T02:27:39.685Z,101063.47
2022-08-26T02:29:13.657Z,101063.94
2022-08-26T02:30:47.131Z,101056.16
2022-08-26T02:32:18.745Z,101069.66
2022-08-26T02:33:50.282Z,101060.41
2022-08-26T02:35:22.925Z,101065.53
2022-08-26T02:36:56.909Z,101065.41
2022-08-26T02:38:29.388Z,101066.88
2022-08-26T02:40:01.711Z,101070.28
2022-08-26T02:41:36.041Z,101066.50
2022-08-26T02:43:16.927Z,101072.59
2022-08-26T02:44:49.510Z,101067.38
2022-08-26T02:46:21.542Z,101070.28
2022-08-26T02:48:00.756Z,101068.81
2022-08-26T02:49:32.300Z,101071.50
2022-08-26T02:51:04.608Z,101071.50
2022-08-26T02:52:36.740Z,101073.69
2022-08-26T02:54:09.223Z,101072.72
2022-08-26T02:55:41.833Z,101066.13
2022-08-26T02:57:15.137Z,101072.22
2022-08-26T02:58:46.882Z,101066.50
2022-08-26T03:00:18.628Z,101067.00
2022-08-26T03:01:50.243Z,101078.09
2022-08-26T03:03:22.476Z,101065.03
2022-08-26T03:04:58.104Z,101069.66
2022-08-26T03:06:33.684Z,101071.63
2022-08-26T03:08:05.291Z,101068.81
2022-08-26T03:09:36.787Z,101070.28
2022-08-26T03:11:08.557Z,101064.19
2022-08-26T03:12:47.357Z,101067.97
2022-08-26T03:14:19.697Z,101066.16
2022-08-26T03:15:52.284Z,101068.97
2022-08-26T03:17:23.985Z,101068.69
2022-08-26T03:18:58.463Z,101067.47
2022-08-26T03:20:30.966Z,101064.66
2022-08-26T03:22:03.906Z,101065.88
2022-08-26T03:23:35.442Z,101069.53
2022-08-26T03:25:09.076Z,101067.00
2022-08-26T03:26:40.583Z,101070.06
2022-08-26T03:28:27.025Z,101068.34
2022-08-26T03:30:17.517Z,101067.09
2022-08-26T03:31:49.066Z,101074.19
2022-08-26T03:33:22.282Z,101062.59
2022-08-26T03:34:53.923Z,101067.50
2022-08-26T03:36:25.440Z,101080.53
2022-08-26T03:37:57.527Z,101070.78
2022-08-26T03:39:31.668Z,101072.00
2022-08-26T03:41:04.239Z,101067.97
2022-08-26T03:42:39.190Z,101068.09
2022-08-26T03:44:12.100Z,101074.19
2022-08-26T03:45:44.244Z,101070.66
2022-08-26T03:47:17.517Z,101076.13
2022-08-26T03:48:49.405Z,101074.19
2022-08-26T03:50:22.578Z,101072.47
2022-08-26T03:51:55.044Z,101070.53
2022-08-26T03:53:26.964Z,101066.88
2022-08-26T03:54:58.518Z,101077.81
2022-08-26T03:56:30.273Z,101071.88
2022-08-26T03:58:02.137Z,101076.88
2022-08-26T03:59:35.463Z,101083.19
2022-08-26T04:01:08.455Z,101079.41
2022-08-26T04:02:40.320Z,101076.28
2022-08-26T04:04:15.433Z,101070.41
2022-08-26T04:05:51.477Z,101073.34
2022-08-26T04:07:25.316Z,101074.91
2022-08-26T04:08:57.796Z,101072.34
2022-08-26T04:10:29.677Z,101073.72
2022-08-26T04:12:01.305Z,101071.38
2022-08-26T04:13:34.890Z,101073.72
2022-08-26T04:15:10.313Z,101073.59
2022-08-26T04:16:42.406Z,101075.16
2022-08-26T04:18:15.546Z,101071.28
2022-08-26T04:19:47.373Z,101076.38
2022-08-26T04:21:18.914Z,101075.66
2022-08-26T04:22:52.100Z,101074.56
2022-08-26T04:24:24.458Z,101076.13
2022-08-26T04:25:55.955Z,101079.28
2022-08-26T04:27:27.864Z,101074.19
2022-08-26T04:28:59.350Z,101082.47
2022-08-26T04:30:32.371Z,101077.34
2022-08-26T04:32:04.449Z,101072.84
2022-08-26T04:33:35.952Z,101077.13
2022-08-26T04:35:13.278Z,101078.81
2022-08-26T04:36:45.057Z,101078.81
2022-08-26T04:38:16.748Z,101077.72
2022-08-26T04:39:50.499Z,101077.59
2022-08-26T04:41:22.836Z,101089.28
2022-08-26T04:42:56.792Z,101080.75
2022-08-26T04:44:30.211Z,101086.13
2022-08-26T04:46:04.577Z,101086.75
2022-08-26T04:47:36.121Z,101078.69
2022-08-26T04:49:08.612Z,101084.38
2022-08-26T04:50:40.195Z,101086.72
2022-08-26T04:52:15.309Z,101080.22
2022-08-26T04:53:47.710Z,101080.88
2022-08-26T04:55:19.300Z,101089.06
2022-08-26T04:56:51.321Z,101086.50
2022-08-26T04:58:24.450Z,101085.91
2022-08-26T04:59:56.887Z,101089.09
2022-08-26T05:01:31.417Z,101090.44
2022-08-26T05:03:03.015Z,101090.09
2022-08-26T05:04:36.048Z,101089.75
2022-08-26T05:06:07.622Z,101088.38
2022-08-26T05:07:41.137Z,101096.66
2022-08-26T05:09:13.065Z,101088.50
2022-08-26T05:10:48.331Z,101096.81
2022-08-26T05:12:19.964Z,101095.56
2022-08-26T05:13:51.512Z,101096.81
2022-08-26T05:15:23.049Z,101097.78
2022-08-26T05:16:55.953Z,101092.75
2022-08-26T05:18:29.912Z,101093.63
2022-08-26T05:20:01.441Z,101099.34
2022-08-26T05:21:33.874Z,101097.78
2022-08-26T05:23:05.958Z,101098.50
2022-08-26T05:24:39.546Z,101105.34
2022-08-26T05:26:11.067Z,101103.88
2022-08-26T05:27:42.572Z,101099.13
2022-08-26T05:29:14.146Z,101095.56
2022-08-26T05:30:46.084Z,101089.75
2022-08-26T05:32:18.962Z,101097.28
2022-08-26T05:33:50.536Z,101101.19
2022-08-26T05:35:23.357Z,101098.13
2022-08-26T05:36:55.391Z,101096.53
2022-08-26T05:38:30.362Z,101096.53
2022-08-26T05:40:02.466Z,101096.41
2022-08-26T05:41:36.290Z,101104.59
2022-08-26T05:43:10.492Z,101098.00
2022-08-26T05:44:55.695Z,101102.41
2022-08-26T05:46:27.984Z,101102.19
2022-08-26T05:48:00.863Z,101103.13
2022-08-26T05:49:32.425Z,101110.88
2022-08-26T05:51:05.361Z,101101.00
2022-08-26T05:52:37.720Z,101106.75
2022-08-26T05:54:10.398Z,101106.75
2022-08-26T05:55:42.682Z,101104.50
2022-08-26T05:57:14.337Z,101111.94
2022-08-26T05:58:46.310Z,101111.56
2022-08-26T06:00:17.872Z,101116.00
2022-08-26T06:01:49.511Z,101113.06
2022-08-26T06:03:22.400Z,101115.28
2022-08-26T06:04:54.068Z,101111.53
2022-08-26T06:06:28.051Z,101114.72
2022-08-26T06:08:15.873Z,101108.72
2022-08-26T06:09:50.910Z,101109.09
2022-08-26T06:11:26.531Z,101110.28
2022-08-26T06:13:00.185Z,101104.06
2022-08-26T06:14:34.237Z,101099.84
2022-08-26T06:16:07.084Z,101115.72
2022-08-26T06:17:38.703Z,101109.50
2022-08-26T06:19:12.477Z,101120.22
2022-08-26T06:20:57.407Z,101106.19
2022-08-26T06:22:48.416Z,101112.72
2022-08-26T06:24:38.293Z,101115.97
2022-08-26T06:26:10.908Z,101113.41
2022-08-26T06:27:42.872Z,101111.84
2022-08-26T06:29:23.656Z,101111.38
2022-08-26T06:30:56.548Z,101120.72
2022-08-26T06:32:28.227Z,101116.44
2022-08-26T06:34:01.586Z,101122.53
2022-08-26T06:35:37.328Z,101123.03
2022-08-26T06:37:09.685Z,101123.69
2022-08-26T06:38:41.864Z,101125.16
2022-08-26T06:40:13.487Z,101129.41
2022-08-26T06:41:45.239Z,101127.47
2022-08-26T06:43:24.222Z,101121.56
2022-08-26T06:44:56.561Z,101131.56
2022-08-26T06:46:29.473Z,101126.19
2022-08-26T06:48:01.097Z,101132.63
2022-08-26T06:49:32.771Z,101130.78
2022-08-26T06:51:07.629Z,101131.03
2022-08-26T06:52:40.958Z,101135.25
2022-08-26T06:54:12.558Z,101128.47
2022-08-26T06:55:45.738Z,101123.22
2022-08-26T06:57:17.255Z,101128.34
2022-08-26T06:58:48.905Z,101137.91
2022-08-26T07:00:21.272Z,101129.78
2022-08-26T07:01:53.334Z,101129.28
2022-08-26T07:03:25.229Z,101129.41
2022-08-26T07:04:57.004Z,101137.47
2022-08-26T07:06:30.119Z,101141.78
2022-08-26T07:08:02.005Z,101140.31
2022-08-26T07:09:35.370Z,101141.03
2022-08-26T07:11:09.557Z,101133.31
2022-08-26T07:12:41.118Z,101133.81
2022-08-26T07:14:13.049Z,101143.31
2022-08-26T07:15:44.809Z,101136.75
2022-08-26T07:17:16.712Z,101145.31
2022-08-26T07:18:48.891Z,101147.75
2022-08-26T07:20:21.369Z,101153.84
2022-08-26T07:21:54.195Z,101145.41
2022-08-26T07:23:27.375Z,101148.84
2022-08-26T07:24:59.364Z,101152.38
2022-08-26T07:26:31.575Z,101151.03
2022-08-26T07:28:03.913Z,101148.97
2022-08-26T07:29:36.515Z,101140.75
2022-08-26T07:31:09.588Z,101157.91
2022-08-26T07:32:41.868Z,101156.56
2022-08-26T07:34:13.900Z,101161.03
2022-08-26T07:35:45.549Z,101157.31
2022-08-26T07:37:18.593Z,101156.59
2022-08-26T07:38:52.284Z,101150.97
2022-08-26T07:40:23.847Z,101162.56
2022-08-26T07:41:55.401Z,101160.06
2022-08-26T07:43:27.009Z,101164.69
2022-08-26T07:45:00.822Z,101166.66
2022-08-26T07:46:32.529Z,101162.53
2022-08-26T07:48:05.113Z,101168.41
2022-08-26T07:49:36.684Z,101172.06
2022-08-26T07:51:08.626Z,101173.56
2022-08-26T07:52:42.272Z,101177.06
2022-08-26T07:54:13.799Z,101172.94
2022-08-26T07:55:45.394Z,101174.06
2022-08-26T07:57:16.947Z,101178.72
2022-08-26T07:58:51.481Z,101177.13
2022-08-26T08:00:24.077Z,101172.69
2022-08-26T08:01:57.426Z,101177.22
2022-08-26T08:03:28.950Z,101174.94
2022-08-26T08:05:02.161Z,101175.28
2022-08-26T08:06:34.489Z,101178.34
2022-08-26T08:08:26.988Z,101179.56
2022-08-26T08:09:59.612Z,101178.72
2022-08-26T08:11:31.448Z,101177.81
2022-08-26T08:13:03.048Z,101181.13
2022-08-26T08:14:36.540Z,101174.06
2022-08-26T08:16:12.462Z,101176.97
2022-08-26T08:17:44.461Z,101178.53
2022-08-26T08:19:16.024Z,101176.19
2022-08-26T08:21:04.713Z,101173.84
2022-08-26T08:22:40.039Z,101170.78
2022-08-26T08:24:13.769Z,101172.03
2022-08-26T08:25:45.346Z,101175.50
2022-08-26T08:27:18.142Z,101188.28
2022-08-26T08:28:57.776Z,101180.31
2022-08-26T08:30:29.423Z,101175.31
2022-08-26T08:32:01.065Z,101179.56
2022-08-26T08:33:34.575Z,101182.72
2022-08-26T08:35:10.828Z,101186.00
2022-08-26T08:36:43.273Z,101185.84
2022-08-26T08:38:15.486Z,101185.59
2022-08-26T08:39:48.996Z,101186.22
2022-08-26T08:41:30.098Z,101183.03
2022-08-26T08:43:04.270Z,101187.97
2022-08-26T08:44:37.736Z,101196.13
2022-08-26T08:46:12.217Z,101191.13
2022-08-26T08:47:47.444Z,101191.72
2022-08-26T08:49:19.195Z,101185.09
2022-08-26T08:50:52.450Z,101182.75
2022-08-26T08:52:28.888Z,101181.94
2022-08-26T08:54:00.626Z,101179.59
2022-08-26T08:55:40.624Z,101176.69
2022-08-26T08:57:17.327Z,101174.75
2022-08-26T08:58:52.165Z,101184.44
2022-08-26T09:00:30.204Z,101178.09
2022-08-26T09:02:06.514Z,101182.59
2022-08-26T09:03:43.263Z,101175.88
2022-08-26T09:05:18.496Z,101185.59
2022-08-26T09:06:52.747Z,101187.88
2022-08-26T09:08:28.266Z,101187.22
2022-08-26T09:10:02.877Z,101188.91
2022-08-26T09:11:36.576Z,101184.13
2022-08-26T09:13:13.725Z,101193.69
2022-08-26T09:14:49.404Z,101193.44
2022-08-26T09:16:25.358Z,101183.88
2022-08-26T09:18:02.902Z,101188.53
2022-08-26T09:19:40.248Z,101186.56
2022-08-26T09:21:13.234Z,101182.19
2022-08-26T09:22:44.944Z,101186.06
2022-08-26T09:24:16.501Z,101194.72
2022-08-26T09:25:51.279Z,101196.28
2022-08-26T09:27:41.156Z,101197.44
2022-08-26T09:31:02.015Z,101192.06
2022-08-26T09:32:37.376Z,101187.16
2022-08-26T09:34:13.273Z,101198.75
2022-08-26T09:35:52.185Z,101201.84
2022-08-26T09:37:33.768Z,101205.59
2022-08-26T09:39:10.731Z,101203.53
2022-08-26T09:40:56.231Z,101199.03
2022-08-26T09:42:30.986Z,101204.41
2022-08-26T09:44:14.547Z,101202.97
2022-08-26T09:45:50.719Z,101208.19
2022-08-26T09:47:26.545Z,101209.50
2022-08-26T09:49:18.227Z,101195.78
2022-08-26T09:50:53.094Z,101205.38
2022-08-26T09:52:26.637Z,101200.78
2022-08-26T09:53:59.344Z,101200.00
2022-08-26T09:55:30.864Z,101200.88
2022-08-26T09:57:16.933Z,101200.97
2022-08-26T09:58:48.774Z,101203.22
2022-08-26T10:00:26.346Z,101190.44
2022-08-26T10:02:16.023Z,101187.81
2022-08-26T10:03:49.955Z,101194.97
2022-08-26T10:05:28.384Z,101204.63
2022-08-26T10:07:01.877Z,101196.03
2022-08-26T10:08:34.382Z,101192.75
2022-08-26T10:10:09.274Z,101192.78
2022-08-26T10:11:44.015Z,101191.88
2022-08-26T10:13:17.604Z,101196.97
2022-08-26T10:14:51.183Z,101193.16
2022-08-26T10:16:28.434Z,101191.16
2022-08-26T10:18:04.349Z,101191.19
2022-08-26T10:19:40.349Z,101184.56
2022-08-26T10:21:31.076Z,101187.16
2022-08-26T10:23:05.516Z,101182.69
2022-08-26T10:24:40.645Z,101189.03
2022-08-26T10:26:16.323Z,101186.06
2022-08-26T10:27:59.405Z,101192.19
2022-08-26T10:29:34.249Z,101184.28
2022-08-26T10:31:10.960Z,101186.44
2022-08-26T10:32:45.798Z,101187.41
2022-08-26T10:34:18.489Z,101187.75
2022-08-26T10:35:53.950Z,101188.34
2022-08-26T10:37:31.039Z,101188.63
2022-08-26T10:39:07.601Z,101185.19
2022-08-26T10:40:47.233Z,101185.06
2022-08-26T10:42:24.267Z,101182.63
2022-08-26T10:43:58.541Z,101181.78
2022-08-26T10:45:33.049Z,101177.97
2022-08-26T10:47:09.364Z,101175.31
2022-08-26T10:48:46.658Z,101179.44
2022-08-26T10:50:19.316Z,101180.03
2022-08-26T10:51:56.040Z,101172.25
2022-08-26T10:53:32.683Z,101176.34
2022-08-26T10:55:11.240Z,101176.38
2022-08-26T10:56:44.425Z,101176.06
2022-08-26T10:58:26.255Z,101181.31
2022-08-26T11:00:00.594Z,101176.91
2022-08-26T11:01:43.833Z,101178.78
2022-08-26T11:03:24.524Z,101182.31
2022-08-26T11:04:59.210Z,101171.38
2022-08-26T11:06:32.710Z,101172.25
2022-08-26T11:08:28.539Z,101174.47
2022-08-26T11:10:00.642Z,101177.09
2022-08-26T11:11:46.924Z,101169.22
2022-08-26T11:13:18.895Z,101171.13
2022-08-26T11:14:58.427Z,101166.97
2022-08-26T11:16:42.818Z,101163.94
2022-08-26T11:18:35.791Z,101157.81
2022-08-26T11:20:13.308Z,101167.47
2022-08-26T11:21:50.818Z,101163.44
2022-08-26T11:23:45.271Z,101157.69
2022-08-26T11:25:29.161Z,101162.84
2022-08-26T11:27:01.665Z,101164.41
2022-08-26T11:28:34.573Z,101162.44
2022-08-26T11:30:07.461Z,101165.91
2022-08-26T11:31:52.992Z,101165.84
2022-08-26T11:33:56.951Z,101171.63
2022-08-26T11:35:43.332Z,101162.34
2022-08-26T11:37:18.028Z,101169.50
2022-08-26T11:38:49.560Z,101168.25
2022-08-26T11:40:25.091Z,101172.38
2022-08-26T11:42:00.025Z,101162.50
2022-08-26T11:43:32.494Z,101164.28
2022-08-26T11:45:13.199Z,101157.44
2022-08-26T11:46:51.976Z,101171.34
2022-08-26T11:48:29.660Z,101172.91
2022-08-26T11:50:08.622Z,101158.47
2022-08-26T11:51:41.915Z,101157.59
2022-08-26T11:53:19.224Z,101161.72
2022-08-26T11:55:03.853Z,101162.19
2022-08-26T11:56:35.928Z,101163.91
2022-08-26T11:58:07.910Z,101171.53
2022-08-26T11:59:41.499Z,101169.69
2022-08-26T12:01:21.536Z,101169.41
2022-08-26T12:02:54.649Z,101165.75
2022-08-26T12:04:29.083Z,101159.63
2022-08-26T12:06:00.942Z,101165.44
2022-08-26T12:07:35.642Z,101176.78
2022-08-26T12:09:11.457Z,101164.88
2022-08-26T12:10:43.053Z,101170.53
2022-08-26T12:12:16.445Z,101171.09
2022-08-26T12:13:54.965Z,101161.19
2022-08-26T12:15:27.475Z,101170.25
2022-08-26T12:17:09.774Z,101167.56
2022-08-26T12:18:41.409Z,101167.16
2022-08-26T12:20:17.812Z,101170.41
2022-08-26T12:21:49.734Z,101174.06
2022-08-26T12:23:22.629Z,101171.47
2022-08-26T12:25:00.991Z,101165.09
2022-08-26T12:26:33.743Z,101164.66
2022-08-26T12:28:05.588Z,101163.66
2022-08-26T12:29:37.257Z,101164.97
2022-08-26T12:31:11.485Z,101171.13
2022-08-26T12:32:57.297Z,101172.09
2022-08-26T12:34:29.313Z,101171.28
2022-08-26T12:36:01.984Z,101181.88
2022-08-26T12:37:37.882Z,101181.78
2022-08-26T12:39:13.529Z,101178.50
2022-08-26T12:40:47.756Z,101183.94
2022-08-26T12:42:24.183Z,101172.06
2022-08-26T12:43:56.325Z,101181.13
2022-08-26T12:45:28.677Z,101177.72
2022-08-26T12:47:04.024Z,101181.13
2022-08-26T12:48:37.313Z,101172.88
2022-08-26T12:50:10.280Z,101175.66
2022-08-26T12:51:49.513Z,101176.25
2022-08-26T12:53:22.597Z,101180.88
2022-08-26T12:55:00.231Z,101182.84
2022-08-26T12:56:35.485Z,101180.56
2022-08-26T12:58:11.222Z,101180.72
2022-08-26T12:59:42.736Z,101176.72
2022-08-26T13:01:23.653Z,101174.72
2022-08-26T13:02:55.304Z,101174.09
2022-08-26T13:04:34.149Z,101170.56
2022-08-26T13:06:15.653Z,101165.44
2022-08-26T13:08:02.725Z,101170.81
2022-08-26T13:09:36.145Z,101166.19
2022-08-26T13:11:10.981Z,101173.19
2022-08-26T13:12:43.891Z,101169.66
2022-08-26T13:14:21.040Z,101167.81
2022-08-26T13:15:56.248Z,101167.47
2022-08-26T13:17:28.623Z,101166.19
2022-08-26T13:19:01.234Z,101164.06
2022-08-26T13:20:32.839Z,101157.72
2022-08-26T13:22:05.970Z,101165.94
2022-08-26T13:23:41.934Z,101158.25
2022-08-26T13:25:14.251Z,101162.41
2022-08-26T13:26:51.666Z,101165.78
2022-08-26T13:28:24.539Z,101161.84
2022-08-26T13:29:57.569Z,101163.50
2022-08-26T13:31:30.937Z,101159.50
2022-08-26T13:33:02.644Z,101167.22
2022-08-26T13:34:36.644Z,101163.22
2022-08-26T13:36:08.184Z,101151.75
2022-08-26T13:37:39.800Z,101153.06
2022-08-26T13:39:13.581Z,101162.00
2022-08-26T13:40:45.141Z,101160.56
2022-08-26T13:42:16.658Z,101160.84
2022-08-26T13:43:49.615Z,101164.81
2022-08-26T13:45:21.146Z,101157.63
2022-08-26T13:46:52.677Z,101163.97
2022-08-26T13:48:24.198Z,101158.22
2022-08-26T13:49:56.305Z,101163.22
2022-08-26T13:51:27.995Z,101159.16
2022-08-26T13:52:59.522Z,101154.91
2022-08-26T13:54:31.084Z,101152.84
2022-08-26T13:56:02.908Z,101160.03
2022-08-26T13:57:34.556Z,101161.56
2022-08-26T13:59:07.467Z,101148.06
2022-08-26T14:00:39.626Z,101145.66
2022-08-26T14:02:11.261Z,101152.84
2022-08-26T14:03:43.609Z,101147.22
2022-08-26T14:05:15.983Z,101148.94
2022-08-26T14:06:47.607Z,101150.63
2022-08-26T14:08:19.997Z,101149.00
2022-08-26T14:09:51.586Z,101148.25
2022-08-26T14:11:24.794Z,101144.81
2022-08-26T14:12:56.546Z,101155.19
2022-08-26T14:14:29.529Z,101151.97
2022-08-26T14:16:02.580Z,101156.50
2022-08-26T14:17:34.221Z,101150.91
2022-08-26T14:19:07.237Z,101149.66
2022-08-26T14:20:39.195Z,101145.81
2022-08-26T14:22:10.780Z,101158.78
2022-08-26T14:23:42.328Z,101149.16
2022-08-26T14:25:14.411Z,101143.06
2022-08-26T14:26:48.470Z,101137.88
2022-08-26T14:28:20.057Z,101142.44
2022-08-26T14:29:53.745Z,101138.88
2022-08-26T14:31:26.824Z,101144.50
2022-08-26T14:32:59.493Z,101135.81
2022-08-26T14:34:31.083Z,101143.50
2022-08-26T14:36:23.044Z,101143.53
2022-08-26T14:37:55.298Z,101142.94
2022-08-26T14:39:26.899Z,101142.13
2022-08-26T14:40:58.424Z,101143.25
2022-08-26T14:42:31.645Z,101142.28
2022-08-26T14:44:05.428Z,101143.25
2022-08-26T14:47:17.967Z,101150.78
2022-08-26T14:48:49.552Z,101137.78
2022-08-26T14:50:22.841Z,101140.75
2022-08-26T14:51:54.781Z,101131.25
2022-08-26T14:53:44.912Z,101143.91
2022-08-26T14:55:16.590Z,101143.34
2022-08-26T14:56:51.137Z,101134.94
2022-08-26T14:58:23.013Z,101153.25
2022-08-26T14:59:54.707Z,101144.75
2022-08-26T15:01:30.895Z,101146.41
2022-08-26T15:03:02.875Z,101139.16
2022-08-26T15:04:34.607Z,101146.34
2022-08-26T15:06:06.411Z,101137.88
2022-08-26T15:07:38.420Z,101135.03
2022-08-26T15:09:10.108Z,101149.38
2022-08-26T15:10:41.684Z,101142.75
2022-08-26T15:12:13.413Z,101147.28
2022-08-26T15:13:44.995Z,101145.28
2022-08-26T15:15:17.581Z,101153.69
2022-08-26T15:16:51.586Z,101144.91
2022-08-26T15:18:23.472Z,101151.56
2022-08-26T15:19:55.032Z,101147.19
2022-08-26T15:21:27.001Z,101142.91
2022-08-26T15:23:03.313Z,101139.06
2022-08-26T15:24:37.746Z,101135.53
2022-08-26T15:26:10.041Z,101131.41
2022-08-26T15:27:41.584Z,101134.09
2022-08-26T15:29:13.232Z,101135.63
2022-08-26T15:30:44.936Z,101131.09
2022-08-26T15:32:17.940Z,101140.16
2022-08-26T15:33:52.358Z,101137.47
2022-08-26T15:35:24.113Z,101130.84
2022-08-26T15:36:55.750Z,101137.09
2022-08-26T15:38:28.957Z,101129.56
2022-08-26T15:40:00.680Z,101133.41
2022-08-26T15:41:34.700Z,101132.44
2022-08-26T15:43:25.568Z,101137.38
2022-08-26T15:44:58.339Z,101128.44
2022-08-26T15:46:29.925Z,101131.97
2022-08-26T15:48:03.504Z,101135.63
2022-08-26T15:49:35.035Z,101125.13
2022-08-26T15:51:07.504Z,101129.94
2022-08-26T15:52:39.520Z,101122.00
2022-08-26T15:54:11.044Z,101125.81
2022-08-26T15:55:42.560Z,101124.56
2022-08-26T15:57:16.435Z,101119.09
2022-08-26T15:58:50.624Z,101122.81
2022-08-26T16:00:22.290Z,101119.41
2022-08-26T16:01:53.847Z,101128.69
2022-08-26T16:03:26.832Z,101117.78
2022-08-26T16:04:58.346Z,101120.75
2022-08-26T16:06:32.562Z,101126.72
2022-08-26T16:08:04.532Z,101119.63
2022-08-26T16:09:36.089Z,101126.00
2022-08-26T16:11:07.759Z,101122.03
2022-08-26T16:12:39.696Z,101124.59
2022-08-26T16:14:11.324Z,101125.63
2022-08-26T16:15:43.321Z,101118.22
2022-08-26T16:17:14.922Z,101117.56
2022-08-26T16:18:48.354Z,101127.50
2022-08-26T16:20:19.955Z,101127.00
2022-08-26T16:21:51.727Z,101135.84
2022-08-26T16:23:23.772Z,101128.66
2022-08-26T16:24:56.376Z,101120.94
2022-08-26T16:26:28.957Z,101127.34
2022-08-26T16:28:00.557Z,101130.53
2022-08-26T16:29:38.149Z,101121.25
2022-08-26T16:31:10.239Z,101133.03
2022-08-26T16:32:41.771Z,101131.66
2022-08-26T16:34:14.753Z,101134.34
2022-08-26T16:35:46.376Z,101140.13
2022-08-26T16:37:17.955Z,101129.50
2022-08-26T16:38:53.263Z,101130.06
2022-08-26T16:40:24.798Z,101140.81
2022-08-26T16:41:56.375Z,101139.72
2022-08-26T16:43:28.102Z,101133.81
2022-08-26T16:44:59.726Z,101139.97
2022-08-26T16:46:31.307Z,101143.66
2022-08-26T16:48:03.129Z,101135.34
2022-08-26T16:49:36.051Z,101139.53
2022-08-26T16:51:10.494Z,101143.44
2022-08-26T16:52:42.049Z,101146.78
2022-08-26T16:54:14.520Z,101140.63
2022-08-26T16:55:46.174Z,101147.38
2022-08-26T16:57:17.772Z,101152.03
2022-08-26T16:58:49.690Z,101152.09
2022-08-26T17:00:26.037Z,101153.69
2022-08-26T17:01:57.665Z,101152.97
2022-08-26T17:03:29.304Z,101151.25
2022-08-26T17:05:02.233Z,101150.06
2022-08-26T17:06:34.113Z,101153.28
2022-08-26T17:08:06.010Z,101155.19
2022-08-26T17:09:37.632Z,101155.53
2022-08-26T17:11:13.067Z,101160.59
2022-08-26T17:12:44.611Z,101159.75
2022-08-26T17:14:16.150Z,101168.47
2022-08-26T17:15:56.306Z,101166.41
2022-08-26T17:17:31.456Z,101170.84
2022-08-26T17:19:04.427Z,101162.13
2022-08-26T17:20:37.344Z,101162.00
2022-08-26T17:22:09.400Z,101157.09
2022-08-26T17:23:42.432Z,101164.22
2022-08-26T17:25:15.316Z,101168.88
2022-08-26T17:26:47.800Z,101165.91
2022-08-26T17:28:21.624Z,101170.56
2022-08-26T17:29:53.136Z,101174.53
2022-08-26T17:31:24.979Z,101173.81
2022-08-26T17:32:56.677Z,101176.00
2022-08-26T17:34:28.305Z,101173.50
2022-08-26T17:36:01.438Z,101179.06
2022-08-26T17:37:34.616Z,101186.28
2022-08-26T17:39:06.150Z,101189.44
2022-08-26T17:40:37.690Z,101194.63
2022-08-26T17:42:09.446Z,101188.81
2022-08-26T17:43:40.993Z,101185.16
2022-08-26T17:45:12.985Z,101187.38
2022-08-26T17:46:44.782Z,101187.63
2022-08-26T17:48:17.178Z,101181.53
2022-08-26T17:49:48.703Z,101181.53
2022-08-26T17:51:22.639Z,101182.38
2022-08-26T17:52:54.208Z,101191.78
2022-08-26T17:54:26.020Z,101177.78
2022-08-26T17:55:57.556Z,101175.69
2022-08-26T17:57:29.103Z,101174.81